sensor_id;sensor_type;location;lat;lon;timestamp;pressure;altitude;pressure_sealevel;temperature;humidity
31088;BME280;17745;55.914;37.554;2023-11-21T00:02:30;98663.75;;;-6.04;53.04
31088;BME280;17745;55.914;37.554;2023-11-21T00:05:25;98650.38;;;-5.99;52.95
31088;BME280;17745;55.914;37.554;2023-11-21T00:07:54;98659.91;;;-5.99;52.94
31088;BME280;17745;55.914;37.554;2023-11-21T00:10:22;98652.81;;;-6.06;53.00
31088;BME280;17745;55.914;37.554;2023-11-21T00:40:37;98644.78;;;-5.78;52.64
31088;BME280;17745;55.914;37.554;2023-11-21T00:43:21;98645.09;;;-5.64;52.43
31088;BME280;17745;55.914;37.554;2023-11-21T00:45:54;98644.47;;;-5.58;52.24
31088;BME280;17745;55.914;37.554;2023-11-21T00:48:37;98642.66;;;-5.57;52.27
31088;BME280;17745;55.914;37.554;2023-11-21T00:51:16;98640.25;;;-6.17;53.29
31088;BME280;17745;55.914;37.554;2023-11-21T00:53:43;98651.87;;;-5.80;52.58
31088;BME280;17745;55.914;37.554;2023-11-21T00:56:17;98644.75;;;-5.94;52.73
31088;BME280;17745;55.914;37.554;2023-11-21T00:58:44;98651.41;;;-6.51;53.52
31088;BME280;17745;55.914;37.554;2023-11-21T01:01:19;98644.81;;;-6.89;54.59
31088;BME280;17745;55.914;37.554;2023-11-21T01:03:47;98639.81;;;-6.55;53.53
31088;BME280;17745;55.914;37.554;2023-11-21T01:06:24;98637.63;;;-6.77;54.24
31088;BME280;17745;55.914;37.554;2023-11-21T01:09:05;98631.91;;;-7.50;55.84
31088;BME280;17745;55.914;37.554;2023-11-21T01:12:04;98626.56;;;-7.04;54.98
31088;BME280;17745;55.914;37.554;2023-11-21T01:14:45;98637.50;;;-6.67;54.01
31088;BME280;17745;55.914;37.554;2023-11-21T01:17:15;98640.84;;;-6.23;52.96
31088;BME280;17745;55.914;37.554;2023-11-21T01:19:42;98642.50;;;-6.65;53.52
31088;BME280;17745;55.914;37.554;2023-11-21T01:22:20;98651.84;;;-6.56;53.59
31088;BME280;17745;55.914;37.554;2023-11-21T01:24:53;98644.19;;;-6.39;53.16
31088;BME280;17745;55.914;37.554;2023-11-21T01:36:51;98631.94;;;-7.15;54.37
31088;BME280;17745;55.914;37.554;2023-11-21T01:39:24;98643.25;;;-7.08;54.12
31088;BME280;17745;55.914;37.554;2023-11-21T01:42:06;98640.50;;;-6.37;52.72
31088;BME280;17745;55.914;37.554;2023-11-21T01:44:48;98654.53;;;-7.71;54.89
31088;BME280;17745;55.914;37.554;2023-11-21T01:47:43;98627.28;;;-7.20;54.08
31088;BME280;17745;55.914;37.554;2023-11-21T01:50:33;98641.84;;;-6.67;53.08
31088;BME280;17745;55.914;37.554;2023-11-21T01:53:13;98644.00;;;-6.54;52.59
31088;BME280;17745;55.914;37.554;2023-11-21T01:55:54;98643.75;;;-6.26;52.11
31088;BME280;17745;55.914;37.554;2023-11-21T01:58:22;98641.75;;;-6.49;52.60
31088;BME280;17745;55.914;37.554;2023-11-21T02:00:50;98645.41;;;-7.48;54.64
31088;BME280;17745;55.914;37.554;2023-11-21T02:03:44;98664.00;;;-6.75;52.99
31088;BME280;17745;55.914;37.554;2023-11-21T02:06:45;98645.16;;;-6.40;52.09
31088;BME280;17745;55.914;37.554;2023-11-21T02:22:20;98633.72;;;-8.05;55.16
31088;BME280;17745;55.914;37.554;2023-11-21T02:30:57;98636.91;;;-7.22;52.84
31088;BME280;17745;55.914;37.554;2023-11-21T02:33:30;98651.66;;;-6.97;52.50
31088;BME280;17745;55.914;37.554;2023-11-21T02:36:11;98641.00;;;-7.55;53.71
31088;BME280;17745;55.914;37.554;2023-11-21T02:38:55;98644.09;;;-7.52;53.87
31088;BME280;17745;55.914;37.554;2023-11-21T02:41:23;98645.06;;;-7.26;53.04
31088;BME280;17745;55.914;37.554;2023-11-21T02:44:14;98652.03;;;-7.45;53.93
31088;BME280;17745;55.914;37.554;2023-11-21T02:47:01;98644.22;;;-7.09;53.12
31088;BME280;17745;55.914;37.554;2023-11-21T02:49:44;98651.19;;;-7.46;54.10
31088;BME280;17745;55.914;37.554;2023-11-21T02:52:40;98663.97;;;-6.83;52.60
31088;BME280;17745;55.914;37.554;2023-11-21T02:55:10;98669.09;;;-6.56;52.08
31088;BME280;17745;55.914;37.554;2023-11-21T02:57:53;98676.97;;;-6.93;52.85
31088;BME280;17745;55.914;37.554;2023-11-21T03:00:37;98650.94;;;-7.42;54.04
31088;BME280;17745;55.914;37.554;2023-11-21T03:15:25;98676.25;;;-6.42;52.25
31088;BME280;17745;55.914;37.554;2023-11-21T03:18:09;98670.84;;;-6.57;52.63
31088;BME280;17745;55.914;37.554;2023-11-21T03:21:05;98658.91;;;-7.27;54.26
31088;BME280;17745;55.914;37.554;2023-11-21T03:23:49;98669.53;;;-6.96;53.40
31088;BME280;17745;55.914;37.554;2023-11-21T03:29:39;98657.19;;;-7.63;54.97
31088;BME280;17745;55.914;37.554;2023-11-21T03:38:27;98656.97;;;-6.72;53.48
31088;BME280;17745;55.914;37.554;2023-11-21T03:40:55;98662.16;;;-6.91;53.83
31088;BME280;17745;55.914;37.554;2023-11-21T03:43:23;98668.63;;;-6.52;53.13
31088;BME280;17745;55.914;37.554;2023-11-21T03:45:51;98642.59;;;-6.83;53.83
31088;BME280;17745;55.914;37.554;2023-11-21T03:48:18;98678.88;;;-7.21;54.97
31088;BME280;17745;55.914;37.554;2023-11-21T03:50:48;98693.50;;;-6.69;53.65
31088;BME280;17745;55.914;37.554;2023-11-21T03:53:17;98688.31;;;-6.42;53.07
31088;BME280;17745;55.914;37.554;2023-11-21T04:04:56;98681.41;;;-6.42;53.25
31088;BME280;17745;55.914;37.554;2023-11-21T04:07:55;98692.06;;;-6.28;53.07
31088;BME280;17745;55.914;37.554;2023-11-21T04:10:51;98686.19;;;-6.47;53.39
31088;BME280;17745;55.914;37.554;2023-11-21T04:13:36;98688.03;;;-6.66;53.90
31088;BME280;17745;55.914;37.554;2023-11-21T04:16:32;98697.13;;;-6.45;53.38
31088;BME280;17745;55.914;37.554;2023-11-21T04:19:16;98682.84;;;-7.27;54.99
31088;BME280;17745;55.914;37.554;2023-11-21T04:54:37;98711.47;;;-6.77;54.85
31088;BME280;17745;55.914;37.554;2023-11-21T04:57:36;98708.56;;;-6.82;54.74
31088;BME280;17745;55.914;37.554;2023-11-21T05:00:35;98711.69;;;-6.36;53.86
31088;BME280;17745;55.914;37.554;2023-11-21T05:03:33;98720.19;;;-6.70;54.63
31088;BME280;17745;55.914;37.554;2023-11-21T05:06:29;98728.31;;;-6.56;54.27
31088;BME280;17745;55.914;37.554;2023-11-21T05:09:13;98721.28;;;-7.25;55.43
31088;BME280;17745;55.914;37.554;2023-11-21T05:12:13;98740.75;;;-6.78;54.83
31088;BME280;17745;55.914;37.554;2023-11-21T05:14:59;98733.38;;;-6.47;54.13
31088;BME280;17745;55.914;37.554;2023-11-21T05:17:43;98729.28;;;-6.57;54.38
31088;BME280;17745;55.914;37.554;2023-11-21T05:20:12;98732.47;;;-6.90;55.21
31088;BME280;17745;55.914;37.554;2023-11-21T05:22:53;98753.47;;;-6.50;54.16
31088;BME280;17745;55.914;37.554;2023-11-21T05:25:24;98737.91;;;-6.40;53.94
31088;BME280;17745;55.914;37.554;2023-11-21T05:36:29;98732.69;;;-6.83;55.28
31088;BME280;17745;55.914;37.554;2023-11-21T05:39:11;98733.72;;;-6.41;54.24
31088;BME280;17745;55.914;37.554;2023-11-21T05:45:50;98742.84;;;-6.73;54.86
31088;BME280;17745;55.914;37.554;2023-11-21T12:29:51;98843.88;;;-5.57;52.00
31088;BME280;17745;55.914;37.554;2023-11-21T12:32:47;98845.25;;;-5.28;51.18
31088;BME280;17745;55.914;37.554;2023-11-21T12:36:09;98845.38;;;-5.38;51.35
31088;BME280;17745;55.914;37.554;2023-11-21T12:38:54;98841.16;;;-5.48;51.35
31088;BME280;17745;55.914;37.554;2023-11-21T12:41:39;98855.19;;;-5.85;52.19
31088;BME280;17745;55.914;37.554;2023-11-21T12:44:43;98848.16;;;-5.75;52.01
31088;BME280;17745;55.914;37.554;2023-11-21T13:00:36;98876.06;;;-5.19;51.82
31088;BME280;17745;55.914;37.554;2023-11-21T13:03:18;98858.03;;;-5.70;53.00
31088;BME280;17745;55.914;37.554;2023-11-21T13:05:51;98854.97;;;-6.00;53.89
31088;BME280;17745;55.914;37.554;2023-11-21T13:08:37;98858.56;;;-6.01;53.97
31088;BME280;17745;55.914;37.554;2023-11-21T13:11:18;98856.63;;;-5.56;53.04
31088;BME280;17745;55.914;37.554;2023-11-21T13:13:53;98859.00;;;-5.63;53.20
31088;BME280;17745;55.914;37.554;2023-11-21T13:16:29;98853.09;;;-5.47;52.96
31088;BME280;17745;55.914;37.554;2023-11-21T13:19:12;98860.81;;;-5.47;52.99
31088;BME280;17745;55.914;37.554;2023-11-21T13:22:09;98874.88;;;-5.84;53.56
31088;BME280;17745;55.914;37.554;2023-11-21T13:25:23;98876.09;;;-6.05;53.88
31088;BME280;17745;55.914;37.554;2023-11-21T13:28:07;98860.50;;;-5.52;52.72
31088;BME280;17745;55.914;37.554;2023-11-21T13:31:04;98869.53;;;-5.56;52.69
31088;BME280;17745;55.914;37.554;2023-11-21T14:19:37;98898.34;;;-5.61;52.89
31088;BME280;17745;55.914;37.554;2023-11-21T14:22:12;98916.91;;;-5.92;53.77
31088;BME280;17745;55.914;37.554;2023-11-21T14:24:58;98920.56;;;-5.68;53.13
31088;BME280;17745;55.914;37.554;2023-11-21T14:27:44;98931.25;;;-6.15;54.33
31088;BME280;17745;55.914;37.554;2023-11-21T14:31:03;98922.81;;;-5.99;54.00
31088;BME280;17745;55.914;37.554;2023-11-21T14:43:14;98934.91;;;-5.65;53.43
31088;BME280;17745;55.914;37.554;2023-11-21T14:49:04;98943.03;;;-5.60;53.54
31088;BME280;17745;55.914;37.554;2023-11-21T14:52:35;98937.88;;;-5.52;53.53
31088;BME280;17745;55.914;37.554;2023-11-21T20:46:26;99043.28;;;-7.40;58.33
31088;BME280;17745;55.914;37.554;2023-11-21T20:49:22;99033.22;;;-7.23;57.92
31088;BME280;17745;55.914;37.554;2023-11-21T20:51:55;99048.00;;;-7.25;58.01
31088;BME280;17745;55.914;37.554;2023-11-21T20:54:39;99043.28;;;-7.30;58.41
31088;BME280;17745;55.914;37.554;2023-11-21T20:57:47;99041.88;;;-7.14;57.97
31088;BME280;17745;55.914;37.554;2023-11-21T21:01:05;99051.94;;;-7.31;58.30
31088;BME280;17745;55.914;37.554;2023-11-21T21:06:36;99043.41;;;-7.22;58.07
31088;BME280;17745;55.914;37.554;2023-11-21T21:09:32;99040.50;;;-7.09;57.86
31088;BME280;17745;55.914;37.554;2023-11-21T21:12:31;99052.03;;;-7.13;57.94
31088;BME280;17745;55.914;37.554;2023-11-21T21:15:14;99051.62;;;-7.18;58.02
31088;BME280;17745;55.914;37.554;2023-11-21T21:18:10;99054.03;;;-7.44;58.64
31088;BME280;17745;55.914;37.554;2023-11-21T21:20:42;99059.53;;;-7.29;58.54
31088;BME280;17745;55.914;37.554;2023-11-21T21:23:14;99065.72;;;-7.22;58.32
31088;BME280;17745;55.914;37.554;2023-11-21T21:26:26;99058.03;;;-7.32;58.56
31088;BME280;17745;55.914;37.554;2023-11-21T21:35:56;99061.66;;;-7.25;58.56
31088;BME280;17745;55.914;37.554;2023-11-21T21:47:42;99049.44;;;-7.13;58.22
31088;BME280;17745;55.914;37.554;2023-11-21T21:50:35;99055.78;;;-7.45;59.49
31088;BME280;17745;55.914;37.554;2023-11-21T21:53:18;99061.53;;;-7.23;58.94
31088;BME280;17745;55.914;37.554;2023-11-21T22:24:05;99054.72;;;-7.14;58.79
31088;BME280;17745;55.914;37.554;2023-11-21T22:26:41;99051.03;;;-7.02;58.57
31088;BME280;17745;55.914;37.554;2023-11-21T22:29:22;99052.75;;;-6.93;58.25
31088;BME280;17745;55.914;37.554;2023-11-21T22:31:55;99054.69;;;-6.77;58.05
31088;BME280;17745;55.914;37.554;2023-11-21T22:34:23;99062.44;;;-7.14;59.04
31088;BME280;17745;55.914;37.554;2023-11-21T22:36:52;99067.28;;;-7.01;58.78
31088;BME280;17745;55.914;37.554;2023-11-21T22:39:23;99057.34;;;-6.96;58.46
31088;BME280;17745;55.914;37.554;2023-11-21T22:41:58;99057.25;;;-6.77;57.90
31088;BME280;17745;55.914;37.554;2023-11-21T22:44:40;99055.31;;;-6.93;58.30
31088;BME280;17745;55.914;37.554;2023-11-21T22:47:16;99058.56;;;-6.63;57.68
31088;BME280;17745;55.914;37.554;2023-11-21T22:49:57;99062.84;;;-6.53;57.61
31088;BME280;17745;55.914;37.554;2023-11-21T22:52:36;99057.59;;;-6.90;58.39
31088;BME280;17745;55.914;37.554;2023-11-21T22:58:28;99077.81;;;-6.67;57.95
31088;BME280;17745;55.914;37.554;2023-11-21T23:01:24;99084.41;;;-7.20;58.96
31088;BME280;17745;55.914;37.554;2023-11-21T23:04:06;99075.16;;;-6.75;58.15
31088;BME280;17745;55.914;37.554;2023-11-21T23:06:51;99070.28;;;-6.78;58.06
31088;BME280;17745;55.914;37.554;2023-11-21T23:09:19;99067.44;;;-6.57;57.59
31088;BME280;17745;55.914;37.554;2023-11-21T23:12:20;99086.16;;;-6.55;57.61
31088;BME280;17745;55.914;37.554;2023-11-21T23:20:59;99077.13;;;-6.23;57.16
31088;BME280;17745;55.914;37.554;2023-11-21T23:23:27;99080.53;;;-6.22;57.13
31088;BME280;17745;55.914;37.554;2023-11-21T23:25:57;99079.66;;;-6.31;57.28
31088;BME280;17745;55.914;37.554;2023-11-21T23:28:26;99087.44;;;-6.23;57.15
31088;BME280;17745;55.914;37.554;2023-11-21T23:30:53;99095.06;;;-6.49;57.61
31088;BME280;17745;55.914;37.554;2023-11-21T23:33:35;99080.69;;;-6.24;57.05
31088;BME280;17745;55.914;37.554;2023-11-21T23:36:11;99092.97;;;-6.18;57.00
31088;BME280;17745;55.914;37.554;2023-11-21T23:38:42;99090.97;;;-6.24;57.25
31088;BME280;17745;55.914;37.554;2023-11-21T23:41:26;99099.00;;;-6.09;56.96
31088;BME280;17745;55.914;37.554;2023-11-21T23:43:59;99085.03;;;-6.06;56.97
31088;BME280;17745;55.914;37.554;2023-11-21T23:46:27;99082.22;;;-6.13;56.92
31088;BME280;17745;55.914;37.554;2023-11-21T23:48:55;99093.63;;;-6.15;57.12
31088;BME280;17745;55.914;37.554;2023-11-21T23:54:26;99080.44;;;-5.94;56.75
31088;BME280;17745;55.914;37.554;2023-11-21T23:56:55;99084.19;;;-5.89;56.85
31088;BME280;17745;55.914;37.554;2023-11-21T23:59:27;99085.22;;;-5.99;56.91
